sensor_id;sensor_type;location;lat;lon;timestamp;pressure;altitude;pressure_sealevel;temperature;humidity
50394;BME280;36308;46.312;25.288;2023-02-18T00:02:06;96343.78;;;2.69;69.83
50394;BME280;36308;46.312;25.288;2023-02-18T00:04:32;96343.59;;;2.70;70.23
50394;BME280;36308;46.312;25.288;2023-02-18T00:06:58;96348.28;;;2.68;70.20
50394;BME280;36308;46.312;25.288;2023-02-18T00:09:24;96359.91;;;2.67;70.13
50394;BME280;36308;46.312;25.288;2023-02-18T00:11:50;96351.13;;;2.67;70.04
50394;BME280;36308;46.312;25.288;2023-02-18T00:14:16;96348.28;;;2.68;70.02
50394;BME280;36308;46.312;25.288;2023-02-18T00:16:42;96343.59;;;2.70;69.85
50394;BME280;36308;46.312;25.288;2023-02-18T00:19:14;96354.22;;;2.70;70.47
50394;BME280;36308;46.312;25.288;2023-02-18T00:21:40;96349.09;;;2.69;70.43
50394;BME280;36308;46.312;25.288;2023-02-18T00:24:07;96352.38;;;2.71;70.21
50394;BME280;36308;46.312;25.288;2023-02-18T00:26:33;96361.94;;;2.72;70.47
50394;BME280;36308;46.312;25.288;2023-02-18T00:28:59;96354.22;;;2.70;70.59
50394;BME280;36308;46.312;25.288;2023-02-18T00:31:27;96348.91;;;2.70;70.52
50394;BME280;36308;46.312;25.288;2023-02-18T00:33:53;96322.31;;;2.57;70.39
50394;BME280;36308;46.312;25.288;2023-02-18T00:36:20;96343.38;;;2.72;69.98
50394;BME280;36308;46.312;25.288;2023-02-18T00:38:55;96347.06;;;2.71;70.96
50394;BME280;36308;46.312;25.288;2023-02-18T00:41:23;96338.91;;;2.72;70.17
50394;BME280;36308;46.312;25.288;2023-02-18T00:43:48;96335.63;;;2.70;70.79
50394;BME280;36308;46.312;25.288;2023-02-18T00:46:14;96343.59;;;2.70;70.92
50394;BME280;36308;46.312;25.288;2023-02-18T00:48:40;96329.69;;;2.68;70.35
50394;BME280;36308;46.312;25.288;2023-02-18T00:51:06;96336.25;;;2.72;70.50
50394;BME280;36308;46.312;25.288;2023-02-18T00:53:33;96311.09;;;2.61;70.95
50394;BME280;36308;46.312;25.288;2023-02-18T00:55:59;96316.63;;;2.73;70.37
50394;BME280;36308;46.312;25.288;2023-02-18T00:58:25;96307.25;;;2.71;70.44
50394;BME280;36308;46.312;25.288;2023-02-18T01:00:51;96299.88;;;2.73;70.23
50394;BME280;36308;46.312;25.288;2023-02-18T01:03:17;96294.97;;;2.70;70.93
50394;BME280;36308;46.312;25.288;2023-02-18T01:05:43;96295.38;;;2.73;70.97
50394;BME280;36308;46.312;25.288;2023-02-18T01:08:10;96288.22;;;2.74;71.10
50394;BME280;36308;46.312;25.288;2023-02-18T01:10:40;96285.19;;;2.70;70.98
50394;BME280;36308;46.312;25.288;2023-02-18T01:13:06;96276.19;;;2.71;70.58
50394;BME280;36308;46.312;25.288;2023-02-18T01:15:31;96274.16;;;2.73;70.97
50394;BME280;36308;46.312;25.288;2023-02-18T01:17:57;96272.31;;;2.74;70.42
50394;BME280;36308;46.312;25.288;2023-02-18T01:20:22;96268.03;;;2.73;70.47
50394;BME280;36308;46.312;25.288;2023-02-18T01:22:48;96261.06;;;2.72;71.10
50394;BME280;36308;46.312;25.288;2023-02-18T01:25:14;96248.81;;;2.64;70.68
50394;BME280;36308;46.312;25.288;2023-02-18T01:27:40;96260.44;;;2.70;70.50
50394;BME280;36308;46.312;25.288;2023-02-18T01:30:07;96261.06;;;2.72;71.29
50394;BME280;36308;46.312;25.288;2023-02-18T01:32:33;96257.59;;;2.71;70.53
50394;BME280;36308;46.312;25.288;2023-02-18T01:35:03;96260.06;;;2.66;70.58
50394;BME280;36308;46.312;25.288;2023-02-18T01:37:28;96252.09;;;2.66;70.74
50394;BME280;36308;46.312;25.288;2023-02-18T01:39:54;96260.69;;;2.68;70.68
50394;BME280;36308;46.312;25.288;2023-02-18T01:42:23;96249.03;;;2.69;70.80
50394;BME280;36308;46.312;25.288;2023-02-18T01:44:49;96241.06;;;2.69;70.83
50394;BME280;36308;46.312;25.288;2023-02-18T01:47:15;96235.75;;;2.69;71.06
50394;BME280;36308;46.312;25.288;2023-02-18T01:49:42;96227.78;;;2.69;71.47
50394;BME280;36308;46.312;25.288;2023-02-18T01:52:28;96216.56;;;2.67;71.55
50394;BME280;36308;46.312;25.288;2023-02-18T01:54:56;96207.59;;;2.68;71.55
50394;BME280;36308;46.312;25.288;2023-02-18T01:57:34;96219.00;;;2.69;71.52
50394;BME280;36308;46.312;25.288;2023-02-18T02:00:10;96212.88;;;2.68;71.30
50394;BME280;36308;46.312;25.288;2023-02-18T02:02:40;96215.53;;;2.68;70.85
50394;BME280;36308;46.312;25.288;2023-02-18T02:05:07;96211.25;;;2.67;71.13
50394;BME280;36308;46.312;25.288;2023-02-18T02:07:33;96208.38;;;2.69;71.62
50394;BME280;36308;46.312;25.288;2023-02-18T02:09:59;96201.44;;;2.68;71.66
50394;BME280;36308;46.312;25.288;2023-02-18T02:45:21;96180.81;;;2.63;71.64
50394;BME280;36308;46.312;25.288;2023-02-18T02:48:03;96194.09;;;2.63;71.72
50394;BME280;36308;46.312;25.288;2023-02-18T02:50:58;96190.44;;;2.64;72.07
50394;BME280;36308;46.312;25.288;2023-02-18T02:53:29;96178.97;;;2.63;72.25
50394;BME280;36308;46.312;25.288;2023-02-18T02:55:55;96177.16;;;2.64;71.47
50394;BME280;36308;46.312;25.288;2023-02-18T03:02:27;96167.53;;;2.63;72.25
50394;BME280;36308;46.312;25.288;2023-02-18T03:09:47;96155.31;;;2.62;72.28
50394;BME280;36308;46.312;25.288;2023-02-18T03:12:35;96156.91;;;2.63;72.42
50394;BME280;36308;46.312;25.288;2023-02-18T03:15:38;96170.41;;;2.61;71.69
50394;BME280;36308;46.312;25.288;2023-02-18T03:21:08;96157.53;;;2.58;72.31
50394;BME280;36308;46.312;25.288;2023-02-18T03:23:42;96153.66;;;2.61;71.82
50394;BME280;36308;46.312;25.288;2023-02-18T03:26:12;96138.97;;;2.52;72.34
50394;BME280;36308;46.312;25.288;2023-02-18T03:28:41;96154.88;;;2.58;72.53
50394;BME280;36308;46.312;25.288;2023-02-18T03:31:11;96150.00;;;2.62;72.55
50394;BME280;36308;46.312;25.288;2023-02-18T03:33:48;96148.78;;;2.58;72.56
50394;BME280;36308;46.312;25.288;2023-02-18T03:36:18;96149.19;;;2.61;72.28
50394;BME280;36308;46.312;25.288;2023-02-18T03:38:50;96127.94;;;2.61;72.41
50394;BME280;36308;46.312;25.288;2023-02-18T03:41:18;96114.88;;;2.60;72.50
50394;BME280;36308;46.312;25.288;2023-02-18T03:43:57;96115.69;;;2.60;72.13
50394;BME280;36308;46.312;25.288;2023-02-18T03:46:26;96110.56;;;2.59;72.35
50394;BME280;36308;46.312;25.288;2023-02-18T03:48:51;96108.75;;;2.59;72.89
50394;BME280;36308;46.312;25.288;2023-02-18T03:51:18;96094.44;;;2.60;72.50
50394;BME280;36308;46.312;25.288;2023-02-18T03:53:44;96104.25;;;2.60;71.98
50394;BME280;36308;46.312;25.288;2023-02-18T03:56:10;96106.91;;;2.60;72.77
50394;BME280;36308;46.312;25.288;2023-02-18T03:58:36;96107.91;;;2.59;72.82
50394;BME280;36308;46.312;25.288;2023-02-18T04:01:02;96115.69;;;2.60;72.61
50394;BME280;36308;46.312;25.288;2023-02-18T04:03:28;96114.06;;;2.59;72.11
50394;BME280;36308;46.312;25.288;2023-02-18T04:05:53;96118.53;;;2.59;72.41
50394;BME280;36308;46.312;25.288;2023-02-18T04:08:18;96114.25;;;2.58;72.31
50394;BME280;36308;46.312;25.288;2023-02-18T04:10:44;96111.41;;;2.59;72.59
50394;BME280;36308;46.312;25.288;2023-02-18T04:13:09;96120.56;;;2.57;72.94
50394;BME280;36308;46.312;25.288;2023-02-18T04:15:35;96114.88;;;2.60;72.84
50394;BME280;36308;46.312;25.288;2023-02-18T04:18:01;96111.19;;;2.61;72.48
50394;BME280;36308;46.312;25.288;2023-02-18T04:20:27;96080.78;;;2.43;72.97
50394;BME280;36308;46.312;25.288;2023-02-18T04:22:52;96106.91;;;2.60;72.95
50394;BME280;36308;46.312;25.288;2023-02-18T04:25:18;96106.09;;;2.59;72.53
50394;BME280;36308;46.312;25.288;2023-02-18T04:27:43;96113.22;;;2.59;73.05
50394;BME280;36308;46.312;25.288;2023-02-18T04:30:09;96104.25;;;2.60;72.79
50394;BME280;36308;46.312;25.288;2023-02-18T04:32:35;96099.34;;;2.57;72.71
50394;BME280;36308;46.312;25.288;2023-02-18T04:35:00;96097.91;;;2.61;72.70
50394;BME280;36308;46.312;25.288;2023-02-18T04:37:26;96092.84;;;2.59;72.93
50394;BME280;36308;46.312;25.288;2023-02-18T04:39:52;96092.00;;;2.59;73.05
50394;BME280;36308;46.312;25.288;2023-02-18T04:42:18;96097.72;;;2.56;73.39
50394;BME280;36308;46.312;25.288;2023-02-18T04:44:43;96106.09;;;2.59;73.39
50394;BME280;36308;46.312;25.288;2023-02-18T04:47:09;96097.31;;;2.59;72.77
50394;BME280;36308;46.312;25.288;2023-02-18T04:49:34;96105.25;;;2.59;73.43
50394;BME280;36308;46.312;25.288;2023-02-18T04:52:00;96102.63;;;2.59;73.50
50394;BME280;36308;46.312;25.288;2023-02-18T04:54:26;96104.25;;;2.60;72.68
50394;BME280;36308;46.312;25.288;2023-02-18T04:56:51;96098.94;;;2.60;72.65
50394;BME280;36308;46.312;25.288;2023-02-18T04:59:17;96090.38;;;2.58;73.32
50394;BME280;36308;46.312;25.288;2023-02-18T05:01:42;96095.69;;;2.58;72.78
50394;BME280;36308;46.312;25.288;2023-02-18T05:04:08;96098.94;;;2.60;72.79
50394;BME280;36308;46.312;25.288;2023-02-18T05:06:33;96091.00;;;2.60;72.91
50394;BME280;36308;46.312;25.288;2023-02-18T05:08:59;96084.25;;;2.57;73.18
50394;BME280;36308;46.312;25.288;2023-02-18T05:11:25;96086.06;;;2.57;73.04
50394;BME280;36308;46.312;25.288;2023-02-18T05:13:51;96081.38;;;2.59;73.59
50394;BME280;36308;46.312;25.288;2023-02-18T05:16:16;96091.59;;;2.62;73.27
50394;BME280;36308;46.312;25.288;2023-02-18T05:18:42;96093.63;;;2.60;72.95
50394;BME280;36308;46.312;25.288;2023-02-18T05:21:07;96093.63;;;2.60;73.66
50394;BME280;36308;46.312;25.288;2023-02-18T05:23:33;96102.00;;;2.57;73.29
50394;BME280;36308;46.312;25.288;2023-02-18T05:25:58;96095.25;;;2.61;73.41
50394;BME280;36308;46.312;25.288;2023-02-18T05:28:24;96102.63;;;2.59;73.63
50394;BME280;36308;46.312;25.288;2023-02-18T05:30:49;96109.56;;;2.60;73.64
50394;BME280;36308;46.312;25.288;2023-02-18T05:33:15;96108.75;;;2.59;73.41
50394;BME280;36308;46.312;25.288;2023-02-18T05:35:40;96120.19;;;2.60;73.58
50394;BME280;36308;46.312;25.288;2023-02-18T05:38:06;96108.34;;;2.56;72.97
50394;BME280;36308;46.312;25.288;2023-02-18T05:40:32;96113.66;;;2.56;73.97
50394;BME280;36308;46.312;25.288;2023-02-18T05:42:57;96108.97;;;2.58;73.93
50394;BME280;36308;46.312;25.288;2023-02-18T05:45:22;96113.03;;;2.60;74.06
50394;BME280;36308;46.312;25.288;2023-02-18T05:47:48;96103.22;;;2.54;74.08
50394;BME280;36308;46.312;25.288;2023-02-18T05:50:14;96112.03;;;2.61;73.70
50394;BME280;36308;46.312;25.288;2023-02-18T05:52:39;96116.91;;;2.58;73.42
50394;BME280;36308;46.312;25.288;2023-02-18T05:55:05;96089.56;;;2.51;73.32
50394;BME280;36308;46.312;25.288;2023-02-18T05:57:30;96105.06;;;2.60;73.55
50394;BME280;36308;46.312;25.288;2023-02-18T05:59:56;96111.19;;;2.61;73.74
50394;BME280;36308;46.312;25.288;2023-02-18T06:02:21;96092.19;;;2.51;73.99
50394;BME280;36308;46.312;25.288;2023-02-18T06:04:47;96086.72;;;2.46;74.15
50394;BME280;36308;46.312;25.288;2023-02-18T06:07:12;96103.03;;;2.56;73.72
50394;BME280;36308;46.312;25.288;2023-02-18T06:09:38;96109.94;;;2.63;73.95
50394;BME280;36308;46.312;25.288;2023-02-18T06:12:04;96123.03;;;2.65;74.41
50394;BME280;36308;46.312;25.288;2023-02-18T06:14:29;96116.09;;;2.64;74.40
50394;BME280;36308;46.312;25.288;2023-02-18T06:16:55;96108.75;;;2.66;74.47
50394;BME280;36308;46.312;25.288;2023-02-18T06:19:20;96105.47;;;2.64;73.74
50394;BME280;36308;46.312;25.288;2023-02-18T06:21:46;96098.53;;;2.63;73.74
50394;BME280;36308;46.312;25.288;2023-02-18T06:24:11;96107.91;;;2.66;74.08
50394;BME280;36308;46.312;25.288;2023-02-18T06:26:36;96080.38;;;2.47;73.66
50394;BME280;36308;46.312;25.288;2023-02-18T06:29:03;96110.78;;;2.64;73.80
50394;BME280;36308;46.312;25.288;2023-02-18T06:31:28;96114.44;;;2.63;74.28
50394;BME280;36308;46.312;25.288;2023-02-18T06:33:54;96107.09;;;2.65;74.40
50394;BME280;36308;46.312;25.288;2023-02-18T06:36:19;96107.09;;;2.65;74.33
50394;BME280;36308;46.312;25.288;2023-02-18T06:38:45;96103.84;;;2.63;74.09
50394;BME280;36308;46.312;25.288;2023-02-18T06:41:12;96100.78;;;2.66;74.91
50394;BME280;36308;46.312;25.288;2023-02-18T06:43:38;96100.78;;;2.66;74.65
50394;BME280;36308;46.312;25.288;2023-02-18T06:46:04;96099.75;;;2.67;74.85
50394;BME280;36308;46.312;25.288;2023-02-18T06:48:30;96102.41;;;2.67;74.34
50394;BME280;36308;46.312;25.288;2023-02-18T06:50:56;96091.16;;;2.65;75.14
50394;BME280;36308;46.312;25.288;2023-02-18T06:53:21;96092.81;;;2.66;75.03
50394;BME280;36308;46.312;25.288;2023-02-18T06:55:47;96090.56;;;2.63;74.28
50394;BME280;36308;46.312;25.288;2023-02-18T06:58:13;96098.13;;;2.66;74.61
50394;BME280;36308;46.312;25.288;2023-02-18T07:00:39;96088.31;;;2.67;74.53
50394;BME280;36308;46.312;25.288;2023-02-18T07:03:04;96087.50;;;2.66;74.47
50394;BME280;36308;46.312;25.288;2023-02-18T07:05:31;96078.09;;;2.63;75.05
50394;BME280;36308;46.312;25.288;2023-02-18T07:07:56;96078.94;;;2.64;75.29
50394;BME280;36308;46.312;25.288;2023-02-18T07:10:22;96082.19;;;2.66;75.23
50394;BME280;36308;46.312;25.288;2023-02-18T07:12:48;96090.34;;;2.71;75.28
50394;BME280;36308;46.312;25.288;2023-02-18T07:15:13;96092.19;;;2.71;74.82
50394;BME280;36308;46.312;25.288;2023-02-18T07:17:39;96084.03;;;2.72;74.86
50394;BME280;36308;46.312;25.288;2023-02-18T07:20:05;96075.47;;;2.70;74.54
50394;BME280;36308;46.312;25.288;2023-02-18T07:22:31;96079.72;;;2.71;74.94
50394;BME280;36308;46.312;25.288;2023-02-18T07:24:57;96071.56;;;2.73;75.42
50394;BME280;36308;46.312;25.288;2023-02-18T07:27:22;96056.47;;;2.60;75.12
50394;BME280;36308;46.312;25.288;2023-02-18T07:29:48;96057.47;;;2.66;75.17
50394;BME280;36308;46.312;25.288;2023-02-18T07:32:15;96070.94;;;2.77;74.94
50394;BME280;36308;46.312;25.288;2023-02-18T07:34:41;96069.94;;;2.78;75.52
50394;BME280;36308;46.312;25.288;2023-02-18T07:37:07;96071.53;;;2.79;74.89
50394;BME280;36308;46.312;25.288;2023-02-18T07:39:41;96069.50;;;2.81;74.81
50394;BME280;36308;46.312;25.288;2023-02-18T07:42:08;96068.69;;;2.81;75.67
50394;BME280;36308;46.312;25.288;2023-02-18T07:44:34;96072.75;;;2.83;75.65
50394;BME280;36308;46.312;25.288;2023-02-18T07:47:00;96072.75;;;2.83;74.75
50394;BME280;36308;46.312;25.288;2023-02-18T07:49:26;96068.88;;;2.86;75.40
50394;BME280;36308;46.312;25.288;2023-02-18T07:51:52;96077.06;;;2.85;75.19
50394;BME280;36308;46.312;25.288;2023-02-18T07:54:17;96062.16;;;2.83;75.37
50394;BME280;36308;46.312;25.288;2023-02-18T07:56:44;96067.66;;;2.89;75.15
50394;BME280;36308;46.312;25.288;2023-02-18T07:59:09;96073.97;;;2.88;75.39
50394;BME280;36308;46.312;25.288;2023-02-18T08:01:35;96071.94;;;2.90;75.38
50394;BME280;36308;46.312;25.288;2023-02-18T08:04:00;96066.63;;;2.90;75.70
50394;BME280;36308;46.312;25.288;2023-02-18T08:06:37;96076.84;;;2.93;75.39
50394;BME280;36308;46.312;25.288;2023-02-18T08:09:04;96075.81;;;2.94;75.12
50394;BME280;36308;46.312;25.288;2023-02-18T08:11:30;96071.53;;;2.93;75.62
50394;BME280;36308;46.312;25.288;2023-02-18T08:13:56;96074.78;;;2.95;75.05
50394;BME280;36308;46.312;25.288;2023-02-18T08:16:22;96076.41;;;2.96;75.05
50394;BME280;36308;46.312;25.288;2023-02-18T08:18:49;96076.41;;;2.96;75.80
50394;BME280;36308;46.312;25.288;2023-02-18T08:21:16;96081.72;;;2.96;75.38
50394;BME280;36308;46.312;25.288;2023-02-18T08:23:42;96080.72;;;2.97;75.34
50394;BME280;36308;46.312;25.288;2023-02-18T08:26:07;96064.97;;;2.95;74.92
50394;BME280;36308;46.312;25.288;2023-02-18T08:28:33;96065.78;;;2.96;75.20
50394;BME280;36308;46.312;25.288;2023-02-18T08:30:58;96067.44;;;2.97;75.87
50394;BME280;36308;46.312;25.288;2023-02-18T08:33:24;96077.63;;;3.00;75.66
50394;BME280;36308;46.312;25.288;2023-02-18T08:35:51;96077.63;;;3.00;75.54
50394;BME280;36308;46.312;25.288;2023-02-18T08:38:20;96076.00;;;2.99;75.89
50394;BME280;36308;46.312;25.288;2023-02-18T08:40:46;96068.28;;;2.91;75.67
50394;BME280;36308;46.312;25.288;2023-02-18T08:43:12;96077.44;;;3.01;75.34
50394;BME280;36308;46.312;25.288;2023-02-18T08:45:38;96083.53;;;3.02;75.64
50394;BME280;36308;46.312;25.288;2023-02-18T08:48:07;96085.81;;;3.05;75.64
50394;BME280;36308;46.312;25.288;2023-02-18T08:50:33;96080.50;;;3.05;76.18
50394;BME280;36308;46.312;25.288;2023-02-18T08:52:59;96082.75;;;3.01;75.70
50394;BME280;36308;46.312;25.288;2023-02-18T08:55:30;96081.50;;;3.04;76.16
50394;BME280;36308;46.312;25.288;2023-02-18T08:57:56;96087.22;;;3.08;75.51
50394;BME280;36308;46.312;25.288;2023-02-18T09:00:21;96081.69;;;3.09;75.60
50394;BME280;36308;46.312;25.288;2023-02-18T09:02:47;96101.31;;;3.08;75.80
50394;BME280;36308;46.312;25.288;2023-02-18T09:05:13;96098.81;;;3.13;76.33
50394;BME280;36308;46.312;25.288;2023-02-18T09:07:39;96093.50;;;3.13;76.08
50394;BME280;36308;46.312;25.288;2023-02-18T09:10:06;96092.72;;;3.13;75.69
50394;BME280;36308;46.312;25.288;2023-02-18T09:12:32;96102.53;;;3.12;76.30
50394;BME280;36308;46.312;25.288;2023-02-18T09:14:58;96097.81;;;3.14;76.02
50394;BME280;36308;46.312;25.288;2023-02-18T09:17:25;96104.13;;;3.13;75.85
50394;BME280;36308;46.312;25.288;2023-02-18T09:19:51;96102.09;;;3.15;76.01
50394;BME280;36308;46.312;25.288;2023-02-18T09:22:17;96100.03;;;3.17;76.02
50394;BME280;36308;46.312;25.288;2023-02-18T09:24:43;96095.97;;;3.15;76.05
50394;BME280;36308;46.312;25.288;2023-02-18T09:27:09;96087.81;;;3.16;75.80
50394;BME280;36308;46.312;25.288;2023-02-18T09:29:37;96090.66;;;3.15;76.43
50394;BME280;36308;46.312;25.288;2023-02-18T09:32:03;96093.72;;;3.18;76.36
50394;BME280;36308;46.312;25.288;2023-02-18T09:34:29;96090.03;;;3.19;76.36
50394;BME280;36308;46.312;25.288;2023-02-18T09:36:54;96090.25;;;3.18;76.37
50394;BME280;36308;46.312;25.288;2023-02-18T09:39:20;96084.72;;;3.19;76.60
50394;BME280;36308;46.312;25.288;2023-02-18T09:44:44;96103.31;;;3.26;76.04
50394;BME280;36308;46.312;25.288;2023-02-18T09:47:29;96096.75;;;3.29;76.11
50394;BME280;36308;46.312;25.288;2023-02-18T09:49:59;96098.38;;;3.30;76.65
50394;BME280;36308;46.312;25.288;2023-02-18T09:52:31;96091.00;;;3.32;76.55
50394;BME280;36308;46.312;25.288;2023-02-18T09:54:57;96085.47;;;3.33;76.77
50394;BME280;36308;46.312;25.288;2023-02-18T09:57:39;96096.53;;;3.37;76.48
50394;BME280;36308;46.312;25.288;2023-02-18T10:00:16;96097.13;;;3.39;76.59
50394;BME280;36308;46.312;25.288;2023-02-18T10:02:59;96095.06;;;3.41;77.17
50394;BME280;36308;46.312;25.288;2023-02-18T10:05:27;96087.28;;;3.46;76.92
50394;BME280;36308;46.312;25.288;2023-02-18T10:07:59;96097.91;;;3.46;76.77
50394;BME280;36308;46.312;25.288;2023-02-18T10:10:44;96111.78;;;3.48;76.62
50394;BME280;36308;46.312;25.288;2023-02-18T10:13:21;96103.25;;;3.39;76.58
50394;BME280;36308;46.312;25.288;2023-02-18T10:15:48;96111.38;;;3.51;76.42
50394;BME280;36308;46.312;25.288;2023-02-18T10:18:30;96109.97;;;3.49;76.89
50394;BME280;36308;46.312;25.288;2023-02-18T10:21:06;96104.44;;;3.50;77.18
50394;BME280;36308;46.312;25.288;2023-02-18T10:23:36;96096.25;;;3.52;77.26
50394;BME280;36308;46.312;25.288;2023-02-18T10:26:05;96097.06;;;3.52;76.80
50394;BME280;36308;46.312;25.288;2023-02-18T10:28:34;96086.41;;;3.52;77.31
50394;BME280;36308;46.312;25.288;2023-02-18T10:31:04;96083.75;;;3.52;77.56
50394;BME280;36308;46.312;25.288;2023-02-18T10:39:25;96071.28;;;3.59;77.96
50394;BME280;36308;46.312;25.288;2023-02-18T10:44:39;96076.16;;;3.62;77.42
50394;BME280;36308;46.312;25.288;2023-02-18T10:49:56;96077.16;;;3.68;77.90
50394;BME280;36308;46.312;25.288;2023-02-18T10:52:22;96093.72;;;3.70;77.58
50394;BME280;36308;46.312;25.288;2023-02-18T10:55:02;96084.69;;;3.71;77.94
50394;BME280;36308;46.312;25.288;2023-02-18T10:57:29;96083.88;;;3.71;77.45
50394;BME280;36308;46.312;25.288;2023-02-18T11:02:40;96084.06;;;3.76;78.08
50394;BME280;36308;46.312;25.288;2023-02-18T11:05:26;96083.03;;;3.77;77.80
50394;BME280;36308;46.312;25.288;2023-02-18T11:07:53;96077.31;;;3.80;77.96
50394;BME280;36308;46.312;25.288;2023-02-18T11:10:33;96068.72;;;3.78;77.56
50394;BME280;36308;46.312;25.288;2023-02-18T11:13:02;96071.97;;;3.80;78.01
50394;BME280;36308;46.312;25.288;2023-02-18T11:15:29;96070.34;;;3.79;77.54
50394;BME280;36308;46.312;25.288;2023-02-18T11:17:57;96068.28;;;3.81;78.25
50394;BME280;36308;46.312;25.288;2023-02-18T11:20:37;96077.66;;;3.83;78.12
50394;BME280;36308;46.312;25.288;2023-02-18T11:25:33;96067.88;;;3.84;77.98
50394;BME280;36308;46.312;25.288;2023-02-18T11:30:38;96065.38;;;3.89;78.26
50394;BME280;36308;46.312;25.288;2023-02-18T11:35:38;96050.16;;;3.96;78.51
50394;BME280;36308;46.312;25.288;2023-02-18T11:38:20;96044.44;;;3.99;78.38
50394;BME280;36308;46.312;25.288;2023-02-18T11:40:56;96025.25;;;3.91;78.92
50394;BME280;36308;46.312;25.288;2023-02-18T11:43:29;96042.84;;;4.17;78.68
50394;BME280;36308;46.312;25.288;2023-02-18T11:46:14;96034.84;;;4.23;79.02
50394;BME280;36308;46.312;25.288;2023-02-18T11:48:40;96043.97;;;4.34;79.36
50394;BME280;36308;46.312;25.288;2023-02-18T11:51:14;96032.19;;;4.42;79.08
50394;BME280;36308;46.312;25.288;2023-02-18T11:53:56;96028.44;;;4.50;79.15
50394;BME280;36308;46.312;25.288;2023-02-18T11:56:25;96021.66;;;4.54;78.90
50394;BME280;36308;46.312;25.288;2023-02-18T11:58:51;96027.16;;;4.59;79.22
50394;BME280;36308;46.312;25.288;2023-02-18T12:04:07;96025.81;;;4.68;79.03
50394;BME280;36308;46.312;25.288;2023-02-18T12:06:47;96022.13;;;4.69;79.53
50394;BME280;36308;46.312;25.288;2023-02-18T12:09:27;96018.00;;;4.73;79.73
50394;BME280;36308;46.312;25.288;2023-02-18T12:14:39;96021.97;;;4.82;79.59
50394;BME280;36308;46.312;25.288;2023-02-18T12:17:13;96018.28;;;4.83;79.97
50394;BME280;36308;46.312;25.288;2023-02-18T12:25:50;96006.91;;;4.95;79.54
50394;BME280;36308;46.312;25.288;2023-02-18T12:39:47;96011.72;;;5.35;81.32
50394;BME280;36308;46.312;25.288;2023-02-18T12:42:24;96018.94;;;5.64;82.18
50394;BME280;36308;46.312;25.288;2023-02-18T12:44:59;96014.34;;;5.83;82.18
50394;BME280;36308;46.312;25.288;2023-02-18T12:55:49;96024.13;;;6.55;82.04
50394;BME280;36308;46.312;25.288;2023-02-18T13:17:17;96017.13;;;7.42;79.88
50394;BME280;36308;46.312;25.288;2023-02-18T13:19:51;96022.19;;;7.55;79.75
50394;BME280;36308;46.312;25.288;2023-02-18T13:22:20;96018.56;;;7.61;78.94
50394;BME280;36308;46.312;25.288;2023-02-18T13:24:49;96012.31;;;7.56;78.21
50394;BME280;36308;46.312;25.288;2023-02-18T13:27:32;96027.28;;;7.68;78.56
50394;BME280;36308;46.312;25.288;2023-02-18T13:32:36;96028.88;;;7.69;77.26
50394;BME280;36308;46.312;25.288;2023-02-18T13:35:20;96021.91;;;7.68;77.59
50394;BME280;36308;46.312;25.288;2023-02-18T13:40:31;96029.72;;;7.70;77.19
50394;BME280;36308;46.312;25.288;2023-02-18T13:46:11;96027.16;;;7.63;76.49
50394;BME280;36308;46.312;25.288;2023-02-18T13:49:09;96020.66;;;7.59;76.42
50394;BME280;36308;46.312;25.288;2023-02-18T13:51:43;96018.94;;;7.53;76.39
50394;BME280;36308;46.312;25.288;2023-02-18T13:56:46;96020.59;;;7.42;76.51
50394;BME280;36308;46.312;25.288;2023-02-18T14:00:01;96022.13;;;7.38;76.04
50394;BME280;36308;46.312;25.288;2023-02-18T14:02:33;96011.56;;;7.32;76.20
50394;BME280;36308;46.312;25.288;2023-02-18T14:05:19;96012.53;;;7.25;76.00
50394;BME280;36308;46.312;25.288;2023-02-18T14:07:49;96012.44;;;7.20;75.95
50394;BME280;36308;46.312;25.288;2023-02-18T14:25:53;95994.16;;;6.77;76.06
50394;BME280;36308;46.312;25.288;2023-02-18T14:28:35;96006.00;;;6.69;76.03
50394;BME280;36308;46.312;25.288;2023-02-18T14:33:36;96010.06;;;6.60;75.97
50394;BME280;36308;46.312;25.288;2023-02-18T14:50:04;96010.97;;;6.30;76.35
50394;BME280;36308;46.312;25.288;2023-02-18T14:52:41;96004.47;;;6.26;76.03
50394;BME280;36308;46.312;25.288;2023-02-18T14:55:19;96012.81;;;6.18;76.03
50394;BME280;36308;46.312;25.288;2023-02-18T14:57:53;96014.09;;;6.15;75.98
50394;BME280;36308;46.312;25.288;2023-02-18T15:00:22;96009.47;;;6.11;76.01
50394;BME280;36308;46.312;25.288;2023-02-18T15:02:51;96003.97;;;6.05;76.14
50394;BME280;36308;46.312;25.288;2023-02-18T15:05:25;96010.81;;;6.01;76.02
50394;BME280;36308;46.312;25.288;2023-02-18T15:08:05;96005.38;;;5.96;76.13
50394;BME280;36308;46.312;25.288;2023-02-18T15:10:42;96004.16;;;5.92;75.82
50394;BME280;36308;46.312;25.288;2023-02-18T15:13:13;96008.34;;;5.88;76.08
50394;BME280;36308;46.312;25.288;2023-02-18T15:15:42;96010.53;;;5.79;75.89
50394;BME280;36308;46.312;25.288;2023-02-18T15:18:39;96010.16;;;5.76;75.82
50394;BME280;36308;46.312;25.288;2023-02-18T15:21:08;96008.19;;;5.71;75.76
50394;BME280;36308;46.312;25.288;2023-02-18T15:23:39;95999.22;;;5.65;75.92
50394;BME280;36308;46.312;25.288;2023-02-18T15:26:06;96004.19;;;5.62;75.93
50394;BME280;36308;46.312;25.288;2023-02-18T15:28:41;95989.19;;;5.49;75.96
50394;BME280;36308;46.312;25.288;2023-02-18T15:31:10;96005.94;;;5.56;76.09
50394;BME280;36308;46.312;25.288;2023-02-18T15:33:42;95998.25;;;5.48;75.91
50394;BME280;36308;46.312;25.288;2023-02-18T15:36:12;95995.06;;;5.39;75.85
50394;BME280;36308;46.312;25.288;2023-02-18T15:38:38;96009.34;;;5.45;75.59
50394;BME280;36308;46.312;25.288;2023-02-18T15:41:10;96003.06;;;5.39;76.29
50394;BME280;36308;46.312;25.288;2023-02-18T15:43:38;96010.25;;;5.39;75.98
50394;BME280;36308;46.312;25.288;2023-02-18T15:46:11;95998.88;;;5.32;75.67
50394;BME280;36308;46.312;25.288;2023-02-18T15:48:44;95997.00;;;5.32;76.00
50394;BME280;36308;46.312;25.288;2023-02-18T15:51:13;95991.97;;;5.24;75.88
50394;BME280;36308;46.312;25.288;2023-02-18T15:53:40;95991.19;;;5.23;76.04